Amador Station, California
Current Conditions -  °F | °C
As of 12:55 PM on Saturday 25 Oct 2014 (Local Time) from KPVF Reporting Station
Broken Clouds Broken Clouds  
Wind Chill: 44°   Ceiling: 300
Heat Index: 48°   Visibility: 2mi
Dew Point: 48°   Wind: 10mph
Humidity: 100%   Direction: 150°SSE
Pressure: 30.12"   Gusts: NA
Location:  38.5644°N, 120.32°W
Report Text: KPVF 251955Z AUTO 15009KT 2SM BKN003 BKN008 BKN027 09/09 A3012 RMK AO1 P0016
Loading
Personal Weather Stations






























Interactive Weather Map
Tropical Storm Tracking
New forecast layout! Learn more

10-Day Weather Forecast

Advertisements
Track Severe Weather on mobile